Time;durP1;ratioP1;P1;durP2;ratioP2;P2;SDS_P1;SDS_P2;PMS_P1;PMS_P2;Temp;Humidity;BMP_temperature;BMP_pressure;BME280_temperature;BME280_humidity;BME280_pressure;Samples;Min_cycle;Max_cycle;Signal;HPM_P1;HPM_P2
2022/12/08 00:00:54;;;;;;;2.03;1.20;;;16.40;55.80;;;;;;6184035;23;45267;-72
2022/12/08 00:03:20;;;;;;;2.80;1.77;;;16.30;55.70;;;;;;6184024;23;45367;-72
2022/12/08 00:11:19;;;;;;;1.95;1.35;;;16.30;55.70;;;;;;6184337;23;45233;-72
2022/12/08 00:13:46;;;;;;;3.03;1.60;;;16.40;55.90;;;;;;6184230;23;45297;-72
2022/12/08 00:16:13;;;;;;;2.83;1.50;;;16.40;55.90;;;;;;6186022;23;45291;-72
2022/12/08 00:18:40;;;;;;;3.38;1.45;;;16.40;55.80;;;;;;6183715;23;46534;-72
2022/12/08 00:21:08;;;;;;;2.00;1.55;;;16.40;55.90;;;;;;6183400;23;45476;-72
2022/12/08 00:23:35;;;;;;;1.48;1.30;;;16.40;55.90;;;;;;6184362;23;45185;-72
2022/12/08 00:26:03;;;;;;;3.08;1.83;;;16.40;55.90;;;;;;6183691;23;45216;-72
2022/12/08 00:28:30;;;;;;;1.63;1.50;;;16.40;55.80;;;;;;6183788;23;45348;-72
2022/12/08 00:30:57;;;;;;;1.63;1.50;;;16.40;55.90;;;;;;6184151;23;45361;-73
2022/12/08 00:33:23;;;;;;;2.38;1.60;;;16.40;55.70;;;;;;6183630;23;45214;-72
2022/12/08 00:35:50;;;;;;;2.38;1.60;;;16.40;55.70;;;;;;6183476;23;45240;-71
2022/12/08 00:38:19;;;;;;;2.47;1.55;;;16.40;55.50;;;;;;6183238;23;46368;-73
2022/12/08 00:40:46;;;;;;;1.80;1.60;;;16.40;55.60;;;;;;6183840;23;45281;-72
2022/12/08 00:43:13;;;;;;;3.78;2.10;;;16.40;55.50;;;;;;6183769;23;45309;-72
2022/12/08 00:45:40;;;;;;;3.90;2.05;;;16.40;55.70;;;;;;6181166;23;45376;-72
2022/12/08 00:48:07;;;;;;;2.90;1.98;;;16.30;55.50;;;;;;6183863;23;46976;-72
2022/12/08 00:50:34;;;;;;;3.55;2.33;;;16.40;55.70;;;;;;6183280;23;45246;-72
2022/12/08 00:53:01;;;;;;;3.10;2.15;;;16.30;55.60;;;;;;6184136;23;45413;-72
2022/12/08 00:55:29;;;;;;;3.42;2.33;;;16.40;55.70;;;;;;6181668;23;45675;-71
2022/12/08 00:57:56;;;;;;;2.83;2.05;;;16.30;55.60;;;;;;6183753;23;46570;-71
2022/12/08 01:00:23;;;;;;;3.80;2.03;;;16.30;55.70;;;;;;6183722;23;45329;-71
2022/12/08 01:02:50;;;;;;;3.03;2.10;;;16.30;55.60;;;;;;6184340;23;45264;-72
2022/12/08 01:05:17;;;;;;;2.70;1.80;;;16.30;55.70;;;;;;6184182;23;45331;-71
2022/12/08 01:07:43;;;;;;;3.40;2.20;;;16.30;55.70;;;;;;6182953;23;45225;-72
2022/12/08 01:10:10;;;;;;;2.60;1.80;;;16.40;55.70;;;;;;6183881;23;45258;-71
2022/12/08 01:12:38;;;;;;;2.55;2.17;;;16.40;55.70;;;;;;6183630;23;45261;-72
2022/12/08 01:15:05;;;;;;;2.60;2.10;;;16.40;55.60;;;;;;6184166;23;45523;-71
2022/12/08 01:17:32;;;;;;;3.92;2.53;;;16.40;55.80;;;;;;6183101;23;46260;-72
2022/12/08 01:20:00;;;;;;;2.78;2.22;;;16.40;55.70;;;;;;6184076;23;45343;-72
2022/12/08 01:22:27;;;;;;;3.25;2.10;;;16.40;55.60;;;;;;6184131;23;45224;-71
2022/12/08 01:24:54;;;;;;;3.60;2.25;;;16.40;55.80;;;;;;6183259;23;45287;-71
2022/12/08 01:27:21;;;;;;;3.25;2.50;;;16.40;55.50;;;;;;6183399;23;45261;-71
2022/12/08 01:29:49;;;;;;;3.72;2.60;;;16.40;55.50;;;;;;6183273;23;45405;-71
2022/12/08 01:32:16;;;;;;;3.22;2.55;;;16.40;55.50;;;;;;6183995;23;45156;-71
2022/12/08 01:34:43;;;;;;;4.45;2.50;;;16.40;55.50;;;;;;6183440;23;45543;-72
2022/12/08 01:37:11;;;;;;;2.65;2.22;;;16.40;55.60;;;;;;6182472;23;47381;-72
2022/12/08 01:39:40;;;;;;;4.00;2.60;;;16.40;55.60;;;;;;6183492;23;45285;-71
2022/12/08 01:42:06;;;;;;;3.58;2.67;;;16.30;56.80;;;;;;6183270;23;45207;-71
2022/12/08 01:44:55;;;;;;;3.70;2.58;;;16.40;55.60;;;;;;6182544;23;45341;-72
2022/12/08 01:47:24;;;;;;;3.55;2.38;;;16.30;55.60;;;;;;6181648;23;48277;-72
2022/12/08 01:49:51;;;;;;;3.65;2.53;;;16.30;55.50;;;;;;6183810;23;45259;-72
2022/12/08 01:52:23;;;;;;;3.38;2.20;;;16.30;55.50;;;;;;6183209;23;45412;-71
2022/12/08 01:54:56;;;;;;;3.55;2.28;;;16.40;55.70;;;;;;6183130;23;45237;-71
2022/12/08 01:57:27;;;;;;;3.00;2.30;;;16.30;55.70;;;;;;6182685;23;47328;-72
2022/12/08 02:00:01;;;;;;;3.08;2.40;;;16.40;55.80;;;;;;6183535;23;45260;-71
2022/12/08 02:02:35;;;;;;;3.70;2.13;;;16.40;55.80;;;;;;6183894;23;45359;-72
2022/12/08 02:05:04;;;;;;;4.28;2.58;;;16.40;55.80;;;;;;6186663;23;45384;-72
2022/12/08 02:07:31;;;;;;;3.80;2.53;;;16.40;55.80;;;;;;6183423;23;47329;-71
2022/12/08 02:09:58;;;;;;;3.42;2.20;;;16.40;55.80;;;;;;6183588;23;45341;-71
2022/12/08 02:12:25;;;;;;;3.75;2.35;;;16.40;55.90;;;;;;6183696;23;45232;-71
2022/12/08 02:14:52;;;;;;;2.42;1.80;;;16.40;55.90;;;;;;6183496;23;45275;-71
2022/12/08 02:17:36;;;;;;;2.97;2.28;;;16.40;55.90;;;;;;6182982;23;48283;-71
2022/12/08 02:20:23;;;;;;;2.90;2.45;;;16.40;55.70;;;;;;6183296;23;45614;-71
2022/12/08 02:22:58;;;;;;;4.25;2.50;;;16.40;55.80;;;;;;6183790;23;45342;-71
2022/12/08 02:25:34;;;;;;;3.13;2.42;;;16.40;55.80;;;;;;6183861;23;45352;-71
2022/12/08 02:28:12;;;;;;;3.83;2.15;;;16.40;55.80;;;;;;6183062;23;45564;-71
2022/12/08 02:30:50;;;;;;;2.80;2.22;;;16.40;55.80;;;;;;6183494;23;45438;-71
2022/12/08 02:33:40;;;;;;;2.97;2.15;;;16.40;55.90;;;;;;6183147;23;45228;-72
2022/12/08 02:36:14;;;;;;;2.90;2.22;;;16.40;55.90;;;;;;6183038;23;45269;-71
2022/12/08 02:38:48;;;;;;;3.10;2.10;;;16.40;55.70;;;;;;6182951;23;46816;-72
2022/12/08 02:41:32;;;;;;;3.50;2.20;;;16.30;55.80;;;;;;6183167;23;45288;-71
2022/12/08 02:44:06;;;;;;;3.17;2.42;;;16.40;55.80;;;;;;6181508;23;45257;-71
2022/12/08 02:46:39;;;;;;;2.67;2.35;;;16.30;55.70;;;;;;6182268;23;45328;-71
2022/12/08 02:49:08;;;;;;;4.50;2.38;;;16.30;55.60;;;;;;6182950;23;46268;-72
2022/12/08 02:51:34;;;;;;;3.65;2.00;;;16.40;55.90;;;;;;6182516;23;45341;-71
2022/12/08 02:54:03;;;;;;;2.80;2.10;;;16.40;55.90;;;;;;6182869;23;45236;-72
2022/12/08 02:57:01;;;;;;;3.60;2.00;;;16.40;55.80;;;;;;6182323;23;45635;-71
2022/12/08 02:59:52;;;;;;;1.50;1.40;;;16.40;55.80;;;;;;6178403;23;47068;-71
2022/12/08 03:02:41;;;;;;;3.08;2.05;;;16.40;55.70;;;;;;6182627;23;45374;-72
2022/12/08 03:05:21;;;;;;;2.22;1.70;;;16.40;55.60;;;;;;6183284;23;45195;-72
2022/12/08 03:07:59;;;;;;;1.75;1.40;;;16.40;55.60;;;;;;6182238;23;45305;-71
2022/12/08 03:10:32;;;;;;;2.10;1.70;;;16.40;55.60;;;;;;6183148;23;46432;-72
2022/12/08 03:13:04;;;;;;;2.85;1.70;;;16.40;55.30;;;;;;6182851;23;45309;-71
2022/12/08 03:15:32;;;;;;;3.38;1.50;;;16.40;55.30;;;;;;6183516;23;45404;-72
2022/12/08 03:18:00;;;;;;;1.90;1.50;;;16.40;55.30;;;;;;6182419;23;45487;-71
2022/12/08 03:20:31;;;;;;;2.65;1.80;;;16.40;55.20;;;;;;6182710;23;46559;-71
2022/12/08 03:23:00;;;;;;;1.33;1.23;;;16.40;55.30;;;;;;6182636;23;45334;-72
2022/12/08 03:25:29;;;;;;;2.40;1.58;;;16.40;55.30;;;;;;6182677;23;45314;-71
2022/12/08 03:27:57;;;;;;;1.80;1.23;;;16.40;55.20;;;;;;6182832;23;45249;-71
2022/12/08 03:30:23;;;;;;;1.60;1.35;;;16.40;55.30;;;;;;6182046;23;46290;-72
2022/12/08 03:32:55;;;;;;;1.92;1.48;;;16.40;55.30;;;;;;6183285;23;45249;-71
2022/12/08 03:35:24;;;;;;;1.88;1.35;;;16.40;55.40;;;;;;6182296;23;45261;-71
2022/12/08 03:38:01;;;;;;;2.15;1.50;;;16.30;55.30;;;;;;6181892;22;45161;-71
2022/12/08 03:40:28;;;;;;;1.67;1.35;;;16.30;55.30;;;;;;6182619;23;48486;-71
2022/12/08 03:42:54;;;;;;;1.55;1.33;;;16.30;55.40;;;;;;6182637;23;45317;-71
2022/12/08 03:45:21;;;;;;;2.33;1.35;;;16.30;55.40;;;;;;6181586;23;45240;-71
2022/12/08 03:47:48;;;;;;;1.67;1.40;;;16.40;55.60;;;;;;6181193;23;45280;-71
2022/12/08 03:50:15;;;;;;;1.75;1.27;;;16.40;55.50;;;;;;6182733;23;45472;-72
2022/12/08 03:52:42;;;;;;;1.95;1.25;;;16.40;55.40;;;;;;6184219;23;45268;-71
2022/12/08 03:55:10;;;;;;;2.58;1.55;;;16.40;55.30;;;;;;6182228;23;45221;-71
2022/12/08 03:57:37;;;;;;;2.35;1.50;;;16.40;55.50;;;;;;6181748;23;45437;-71
2022/12/08 04:00:06;;;;;;;1.92;1.38;;;16.40;55.40;;;;;;6182408;23;47401;-71
2022/12/08 04:02:33;;;;;;;1.67;1.50;;;16.40;55.40;;;;;;6182378;23;45381;-71
2022/12/08 04:05:00;;;;;;;2.10;1.63;;;16.40;55.20;;;;;;6183461;23;45308;-71
2022/12/08 04:07:26;;;;;;;2.35;1.45;;;16.40;55.10;;;;;;6184030;23;45389;-71
2022/12/08 04:09:53;;;;;;;1.55;1.30;;;16.40;55.10;;;;;;6183576;23;47262;-71
2022/12/08 04:12:21;;;;;;;1.58;1.23;;;16.40;55.00;;;;;;6183993;23;45341;-71
2022/12/08 04:14:48;;;;;;;1.48;1.20;;;16.30;55.10;;;;;;6183383;23;45245;-71
2022/12/08 04:17:15;;;;;;;1.25;1.00;;;16.40;55.20;;;;;;6183590;23;45304;-71
2022/12/08 04:19:42;;;;;;;2.15;1.25;;;16.30;55.00;;;;;;6183727;23;48342;-72
2022/12/08 04:22:09;;;;;;;1.92;1.38;;;16.40;56.40;;;;;;6183309;23;45690;-71
2022/12/08 04:24:35;;;;;;;1.70;1.50;;;16.40;55.20;;;;;;6184297;23;45325;-71
2022/12/08 04:27:02;;;;;;;2.05;1.30;;;16.30;55.10;;;;;;6182954;23;45396;-71
2022/12/08 04:29:31;;;;;;;1.27;1.17;;;16.30;55.10;;;;;;6183858;23;46241;-72
2022/12/08 04:31:57;;;;;;;1.30;1.20;;;16.30;55.10;;;;;;6183402;23;45296;-71
2022/12/08 04:34:24;;;;;;;1.42;1.25;;;16.30;55.20;;;;;;6183952;23;45284;-71
2022/12/08 04:36:51;;;;;;;2.40;1.45;;;16.30;55.20;;;;;;6183424;22;45149;-71
2022/12/08 04:39:18;;;;;;;1.77;1.30;;;16.30;55.40;;;;;;6183656;23;45313;-71
2022/12/08 04:41:44;;;;;;;1.88;1.10;;;16.40;55.50;;;;;;6183658;23;45234;-71
2022/12/08 04:44:11;;;;;;;2.50;1.35;;;16.40;55.50;;;;;;6182299;23;45269;-72
2022/12/08 04:46:39;;;;;;;1.40;1.13;;;16.40;55.40;;;;;;6182570;23;45403;-71
2022/12/08 04:49:06;;;;;;;1.50;1.27;;;16.40;55.40;;;;;;6183149;23;46593;-72
2022/12/08 04:51:33;;;;;;;2.63;1.65;;;16.40;56.70;;;;;;6183631;23;45268;-71
2022/12/08 04:54:00;;;;;;;1.88;1.45;;;16.40;55.40;;;;;;6183191;23;45218;-72
2022/12/08 04:56:26;;;;;;;2.00;1.30;;;16.40;55.50;;;;;;6182947;23;45603;-70
2022/12/08 04:58:53;;;;;;;3.75;1.67;;;16.40;55.30;;;;;;6183809;23;47477;-71
2022/12/08 05:01:20;;;;;;;3.67;1.90;;;16.40;55.30;;;;;;6182974;23;45273;-72
2022/12/08 05:03:48;;;;;;;1.92;1.63;;;16.40;55.30;;;;;;6183898;23;45229;-71
2022/12/08 05:06:15;;;;;;;2.55;1.60;;;16.40;55.30;;;;;;6182770;23;45304;-73
2022/12/08 05:08:42;;;;;;;2.30;1.90;;;16.40;55.40;;;;;;6183652;23;47341;-72
2022/12/08 05:11:11;;;;;;;3.60;2.30;;;16.40;55.40;;;;;;6183891;23;45394;-71
2022/12/08 05:13:38;;;;;;;3.08;2.13;;;16.30;55.30;;;;;;6182839;23;45432;-71
2022/12/08 05:16:06;;;;;;;3.13;2.30;;;16.40;55.50;;;;;;6183151;23;45339;-72
2022/12/08 05:18:33;;;;;;;3.00;2.15;;;16.30;55.30;;;;;;6183089;23;46284;-72
2022/12/08 05:21:01;;;;;;;3.58;2.55;;;16.30;55.40;;;;;;6183521;23;45201;-71
2022/12/08 05:23:28;;;;;;;2.95;2.40;;;16.30;55.40;;;;;;6183145;23;45193;-71
2022/12/08 05:25:55;;;;;;;3.85;2.20;;;16.30;55.50;;;;;;6183559;23;45193;-71
2022/12/08 05:28:22;;;;;;;2.80;2.17;;;16.30;55.40;;;;;;6183169;23;46420;-71
2022/12/08 05:30:50;;;;;;;3.22;2.50;;;16.30;55.50;;;;;;6182818;23;45209;-71
2022/12/08 05:33:17;;;;;;;3.45;2.38;;;16.40;55.40;;;;;;6184034;23;45284;-72
2022/12/08 05:35:43;;;;;;;3.75;2.50;;;16.40;55.50;;;;;;6183123;23;45213;-71
2022/12/08 05:38:12;;;;;;;4.80;2.50;;;16.40;55.40;;;;;;6182470;23;47095;-71
2022/12/08 05:40:39;;;;;;;3.65;2.50;;;16.40;55.40;;;;;;6183131;23;46324;-71
2022/12/08 05:43:06;;;;;;;3.55;2.50;;;16.40;55.30;;;;;;6183771;23;45225;-71
2022/12/08 05:45:34;;;;;;;3.50;2.38;;;16.40;55.40;;;;;;6181753;23;45300;-73
2022/12/08 05:48:00;;;;;;;3.25;2.20;;;16.40;55.40;;;;;;6182424;23;48359;-71
2022/12/08 05:50:27;;;;;;;2.55;2.33;;;16.30;55.10;;;;;;6183341;23;45761;-71
2022/12/08 05:52:54;;;;;;;3.65;2.30;;;16.40;55.20;;;;;;6183343;23;45316;-71
2022/12/08 05:55:22;;;;;;;2.58;2.10;;;16.40;55.20;;;;;;6182939;23;45459;-71
2022/12/08 05:57:49;;;;;;;2.33;2.00;;;16.30;55.20;;;;;;6182145;23;48166;-71
2022/12/08 06:00:17;;;;;;;3.50;2.33;;;16.30;55.10;;;;;;6183475;23;45481;-71
2022/12/08 06:02:43;;;;;;;3.40;2.53;;;16.30;55.20;;;;;;6183405;23;45284;-72
2022/12/08 06:05:10;;;;;;;2.75;1.90;;;16.30;55.10;;;;;;6183017;23;45310;-71
2022/12/08 06:07:37;;;;;;;3.00;2.30;;;16.30;55.10;;;;;;6182827;23;47366;-71
2022/12/08 06:10:06;;;;;;;2.60;2.05;;;16.30;55.10;;;;;;6182763;23;45300;-71
2022/12/08 06:12:34;;;;;;;3.47;2.10;;;16.30;55.10;;;;;;6183366;23;45241;-71
2022/12/08 06:15:01;;;;;;;2.75;2.08;;;16.30;55.10;;;;;;6183080;23;45371;-71
2022/12/08 06:17:27;;;;;;;3.95;2.30;;;16.30;55.00;;;;;;6182652;23;46873;-71
2022/12/08 06:19:54;;;;;;;2.75;1.90;;;16.30;55.10;;;;;;6183649;23;45361;-71
2022/12/08 06:22:21;;;;;;;2.78;2.05;;;16.30;55.20;;;;;;6183078;23;45288;-71
2022/12/08 06:24:48;;;;;;;2.65;1.90;;;16.40;55.30;;;;;;6182991;23;45291;-72
2022/12/08 06:27:14;;;;;;;3.13;2.38;;;16.40;55.20;;;;;;6181878;23;47682;-72
2022/12/08 06:29:43;;;;;;;2.92;1.83;;;16.40;55.20;;;;;;6183272;23;45129;-71
2022/12/08 06:32:11;;;;;;;3.67;2.28;;;16.40;55.30;;;;;;6182652;23;45416;-71
2022/12/08 06:34:37;;;;;;;3.75;2.03;;;16.40;55.20;;;;;;6183557;23;45517;-71
2022/12/08 06:37:04;;;;;;;3.35;2.10;;;16.30;55.10;;;;;;6184900;22;46571;-71
2022/12/08 06:39:31;;;;;;;3.35;1.92;;;16.40;55.20;;;;;;6182810;23;45382;-71
2022/12/08 06:44:43;;;;;;;2.83;2.00;;;16.40;55.10;;;;;;6181856;23;45229;-71
2022/12/08 06:47:10;;;;;;;3.28;2.30;;;16.30;55.00;;;;;;6181193;23;46561;-71
2022/12/08 06:49:37;;;;;;;3.78;2.42;;;16.30;55.00;;;;;;6182738;23;45434;-72
2022/12/08 06:52:04;;;;;;;3.25;2.15;;;16.30;55.10;;;;;;6183079;23;45290;-71
2022/12/08 06:54:31;;;;;;;3.95;2.10;;;16.30;54.90;;;;;;6180743;23;45452;-71
2022/12/08 06:56:58;;;;;;;2.28;1.83;;;16.30;55.00;;;;;;6182012;23;45706;-71
2022/12/08 06:59:25;;;;;;;2.63;2.10;;;16.30;55.00;;;;;;6183215;23;45228;-71
2022/12/08 07:01:53;;;;;;;3.38;2.20;;;16.30;55.00;;;;;;6182592;23;45410;-71
2022/12/08 07:04:20;;;;;;;4.28;2.70;;;16.30;54.90;;;;;;6182836;23;45370;-71
2022/12/08 07:06:47;;;;;;;3.42;1.90;;;16.30;54.90;;;;;;6181696;23;46442;-71
2022/12/08 07:09:14;;;;;;;3.63;2.45;;;16.30;55.00;;;;;;6182959;23;45205;-71
2022/12/08 07:11:40;;;;;;;5.78;2.22;;;16.30;55.00;;;;;;6182915;23;45238;-71
2022/12/08 07:14:07;;;;;;;3.10;2.10;;;16.30;55.00;;;;;;6182694;23;45328;-71
2022/12/08 07:16:34;;;;;;;3.33;2.03;;;16.30;55.20;;;;;;6182175;23;48299;-71
2022/12/08 07:19:02;;;;;;;3.10;1.90;;;16.30;55.00;;;;;;6182384;23;45967;-71
2022/12/08 07:21:29;;;;;;;3.50;2.50;;;16.30;55.10;;;;;;6183056;23;45312;-71
2022/12/08 07:23:56;;;;;;;3.88;2.30;;;16.30;55.00;;;;;;6182480;23;45256;-72
2022/12/08 07:26:22;;;;;;;2.72;2.08;;;16.30;55.00;;;;;;6182002;23;45431;-71
2022/12/08 07:28:49;;;;;;;2.05;1.85;;;16.30;55.10;;;;;;6183144;23;45286;-71
2022/12/08 07:31:18;;;;;;;4.93;2.42;;;16.30;55.00;;;;;;6182133;23;45368;-71
2022/12/08 07:33:45;;;;;;;3.28;2.10;;;16.30;54.90;;;;;;6183091;23;45401;-71
2022/12/08 07:36:14;;;;;;;3.70;2.00;;;16.30;54.70;;;;;;6181394;23;46263;-71
2022/12/08 07:38:41;;;;;;;3.20;2.08;;;16.30;54.70;;;;;;6184229;23;45680;-72
2022/12/08 07:41:13;;;;;;;2.95;2.08;;;16.30;54.80;;;;;;6183790;23;45433;-71
2022/12/08 07:43:41;;;;;;;2.97;2.05;;;16.30;54.80;;;;;;6183958;23;45465;-71
2022/12/08 07:46:07;;;;;;;4.75;2.25;;;16.30;54.90;;;;;;6181982;23;47647;-71
2022/12/08 07:48:34;;;;;;;3.17;2.10;;;16.30;54.80;;;;;;6183565;23;45600;-71
2022/12/08 07:51:01;;;;;;;5.68;2.30;;;16.30;56.20;;;;;;6183881;23;45353;-71
2022/12/08 07:53:30;;;;;;;2.65;2.13;;;16.30;54.80;;;;;;6183375;23;45317;-72
2022/12/08 07:55:57;;;;;;;3.42;2.20;;;16.30;54.80;;;;;;6183048;23;46749;-72
2022/12/08 07:58:24;;;;;;;4.07;1.98;;;16.30;54.90;;;;;;6183136;23;45741;-71
2022/12/08 08:00:51;;;;;;;3.47;2.08;;;16.30;54.90;;;;;;6184315;23;45338;-71
2022/12/08 08:03:18;;;;;;;2.53;1.80;;;16.30;55.00;;;;;;6184153;23;45503;-71
2022/12/08 08:05:48;;;;;;;3.83;2.17;;;16.30;55.00;;;;;;6183462;23;47318;-71
2022/12/08 08:08:14;;;;;;;2.75;1.98;;;16.30;55.00;;;;;;6183236;23;45269;-71
2022/12/08 08:10:43;;;;;;;2.90;2.33;;;16.30;56.10;;;;;;6183524;23;45288;-71
2022/12/08 08:13:10;;;;;;;3.72;2.63;;;16.30;56.20;;;;;;6183974;23;45210;-71
2022/12/08 08:15:37;;;;;;;3.78;2.15;;;16.30;55.00;;;;;;6183264;23;48518;-71
2022/12/08 08:18:04;;;;;;;4.30;2.47;;;16.30;55.10;;;;;;6183377;23;45249;-71
2022/12/08 08:20:31;;;;;;;2.70;2.10;;;16.30;55.10;;;;;;6183742;23;45217;-71
2022/12/08 08:22:58;;;;;;;4.55;2.60;;;16.30;55.10;;;;;;6183795;23;45383;-71
2022/12/08 08:25:24;;;;;;;3.38;2.35;;;16.30;55.10;;;;;;6186236;23;47387;-71
2022/12/08 08:27:53;;;;;;;3.85;2.30;;;16.30;54.90;;;;;;6182698;23;45276;-71
2022/12/08 08:30:21;;;;;;;3.55;2.50;;;16.30;55.00;;;;;;6183715;23;45226;-71
2022/12/08 08:32:48;;;;;;;3.78;2.40;;;16.30;54.90;;;;;;6183621;23;45249;-72
2022/12/08 08:35:14;;;;;;;5.57;2.67;;;16.30;54.90;;;;;;6183373;23;46980;-71
2022/12/08 08:37:41;;;;;;;5.97;2.80;;;16.30;54.80;;;;;;6183151;23;45345;-71
2022/12/08 08:40:09;;;;;;;4.57;2.67;;;16.30;54.80;;;;;;6183793;23;45381;-71
2022/12/08 08:42:35;;;;;;;4.30;2.50;;;16.30;54.80;;;;;;6184030;23;45535;-71
2022/12/08 08:45:04;;;;;;;4.22;2.70;;;16.30;54.80;;;;;;6182085;23;46904;-71
2022/12/08 08:47:31;;;;;;;3.47;2.60;;;16.30;54.90;;;;;;6181610;23;45221;-72
2022/12/08 08:49:58;;;;;;;2.97;2.00;;;16.30;54.80;;;;;;6183165;23;45281;-71
2022/12/08 08:52:24;;;;;;;3.15;2.42;;;16.30;54.80;;;;;;6184163;23;45317;-71
2022/12/08 08:54:51;;;;;;;4.18;2.20;;;16.30;54.80;;;;;;6182745;23;46616;-71
2022/12/08 08:57:18;;;;;;;3.38;2.17;;;16.30;54.90;;;;;;6182657;23;45348;-72
2022/12/08 08:59:45;;;;;;;5.95;2.33;;;16.30;54.80;;;;;;6183950;23;45295;-71
2022/12/08 09:02:17;;;;;;;3.30;2.28;;;16.30;55.00;;;;;;6183386;23;45367;-71
2022/12/08 09:04:44;;;;;;;4.80;2.25;;;16.30;55.10;;;;;;6183579;23;47298;-71
2022/12/08 09:07:11;;;;;;;2.70;1.88;;;16.30;55.00;;;;;;6182679;23;45252;-71
2022/12/08 09:09:38;;;;;;;2.88;2.20;;;16.30;55.10;;;;;;6184008;23;45207;-71
2022/12/08 09:12:06;;;;;;;2.80;2.05;;;16.30;55.00;;;;;;6183741;23;45339;-71
2022/12/08 09:14:33;;;;;;;2.70;2.03;;;16.30;55.00;;;;;;6183084;23;48213;-71
2022/12/08 09:16:59;;;;;;;3.33;2.10;;;16.30;54.90;;;;;;6183140;23;45358;-71
2022/12/08 09:19:27;;;;;;;4.68;2.08;;;16.30;54.90;;;;;;6183491;23;45367;-71
2022/12/08 09:21:54;;;;;;;4.78;2.15;;;16.30;54.80;;;;;;6183745;23;45185;-72
2022/12/08 09:24:22;;;;;;;2.35;1.83;;;16.30;54.70;;;;;;6183016;23;46546;-71
2022/12/08 09:26:48;;;;;;;2.75;1.85;;;16.30;54.70;;;;;;6182940;23;45297;-71
2022/12/08 09:29:16;;;;;;;3.05;1.70;;;16.30;54.60;;;;;;6183591;23;45323;-71
2022/12/08 09:31:43;;;;;;;2.40;1.73;;;16.30;54.70;;;;;;6183571;23;45369;-71
2022/12/08 09:34:11;;;;;;;3.00;1.73;;;16.30;54.70;;;;;;6183834;23;47389;-72
2022/12/08 09:36:39;;;;;;;2.20;1.58;;;16.30;54.70;;;;;;6182457;23;45320;-71
2022/12/08 09:39:06;;;;;;;2.90;1.70;;;16.30;54.70;;;;;;6183933;23;45280;-71
2022/12/08 09:41:35;;;;;;;2.63;1.80;;;16.30;54.60;;;;;;6183167;23;45201;-72
2022/12/08 09:44:22;;;;;;;3.25;1.80;;;16.30;54.60;;;;;;6182130;23;46274;-73
2022/12/08 09:46:52;;;;;;;2.83;1.58;;;16.30;54.50;;;;;;6180995;23;45368;-72
2022/12/08 09:49:23;;;;;;;2.72;1.75;;;16.30;54.70;;;;;;6184122;23;45478;-71
2022/12/08 09:51:51;;;;;;;2.47;1.30;;;16.30;54.70;;;;;;6183727;23;45258;-71
2022/12/08 09:54:22;;;;;;;2.85;1.60;;;16.30;54.60;;;;;;6182171;23;48027;-71
2022/12/08 09:56:53;;;;;;;3.17;1.92;;;16.30;54.60;;;;;;6183048;23;46464;-73
2022/12/08 09:59:26;;;;;;;2.72;1.70;;;16.30;54.60;;;;;;6183295;23;45306;-72
2022/12/08 10:01:52;;;;;;;3.05;1.70;;;16.30;54.70;;;;;;6183834;23;45264;-71
2022/12/08 10:04:25;;;;;;;4.05;1.75;;;16.30;54.60;;;;;;6182696;23;46551;-71
2022/12/08 10:07:03;;;;;;;2.38;1.55;;;16.30;54.70;;;;;;6182822;23;46195;-71
2022/12/08 10:09:37;;;;;;;2.38;1.65;;;16.30;54.80;;;;;;6184174;23;45290;-71
2022/12/08 10:12:14;;;;;;;1.83;1.45;;;16.30;54.60;;;;;;6183440;23;45263;-71
2022/12/08 10:14:43;;;;;;;1.83;1.40;;;16.30;54.50;;;;;;6186005;23;45222;-71
2022/12/08 10:17:17;;;;;;;2.90;1.60;;;16.30;54.40;;;;;;6182009;23;45321;-71
2022/12/08 10:19:46;;;;;;;3.38;1.75;;;16.30;54.60;;;;;;6183652;23;45326;-71
2022/12/08 10:22:22;;;;;;;2.95;1.77;;;16.30;54.40;;;;;;6182785;23;45257;-71
2022/12/08 10:24:56;;;;;;;3.40;1.75;;;16.30;54.40;;;;;;6183151;23;45266;-71
2022/12/08 10:27:23;;;;;;;3.92;1.90;;;16.30;54.40;;;;;;6182287;23;45401;-71
2022/12/08 10:29:50;;;;;;;3.80;1.80;;;16.30;54.50;;;;;;6183267;23;45188;-72
2022/12/08 10:32:19;;;;;;;3.00;1.50;;;16.30;54.40;;;;;;6183520;23;45249;-71
2022/12/08 10:35:00;;;;;;;3.33;2.03;;;16.30;54.50;;;;;;6182588;23;46600;-71
2022/12/08 10:37:28;;;;;;;3.92;2.00;;;16.30;54.60;;;;;;6182127;23;45330;-71
2022/12/08 10:40:00;;;;;;;2.67;1.55;;;16.30;54.50;;;;;;6182802;23;45288;-71
2022/12/08 10:42:35;;;;;;;2.83;2.00;;;16.20;54.50;;;;;;6183513;23;45543;-71
2022/12/08 10:45:15;;;;;;;2.45;1.40;;;16.30;54.70;;;;;;6181153;23;47891;-71
2022/12/08 10:47:47;;;;;;;3.97;1.73;;;16.30;54.70;;;;;;6181112;23;45260;-71
2022/12/08 10:50:20;;;;;;;3.50;1.30;;;16.30;54.70;;;;;;6182831;23;45324;-71
2022/12/08 10:52:55;;;;;;;2.42;1.35;;;16.30;54.70;;;;;;6183647;23;45296;-71
2022/12/08 10:55:22;;;;;;;2.55;1.63;;;16.30;54.60;;;;;;6182004;23;47116;-71
2022/12/08 10:57:50;;;;;;;2.38;1.40;;;16.30;54.60;;;;;;6182178;23;45393;-71
2022/12/08 11:00:19;;;;;;;1.67;1.35;;;16.30;55.80;;;;;;6183355;23;45324;-72
2022/12/08 11:02:58;;;;;;;2.30;1.48;;;16.30;54.60;;;;;;6182676;23;45264;-72
2022/12/08 11:05:31;;;;;;;2.72;1.65;;;16.30;54.40;;;;;;6182847;23;45432;-71
2022/12/08 11:08:00;;;;;;;4.47;1.85;;;16.30;54.30;;;;;;6182336;23;45380;-71
2022/12/08 11:10:33;;;;;;;3.78;1.63;;;16.30;54.40;;;;;;6182933;23;45391;-71
2022/12/08 11:13:02;;;;;;;2.53;1.70;;;16.30;54.30;;;;;;6185471;23;45267;-72
2022/12/08 11:15:35;;;;;;;2.35;1.67;;;16.30;54.30;;;;;;6186374;23;45242;-71
2022/12/08 11:18:08;;;;;;;2.30;1.48;;;16.30;54.40;;;;;;6186255;23;45400;-71
2022/12/08 11:20:39;;;;;;;3.00;1.63;;;16.30;54.40;;;;;;6186119;23;45357;-71
2022/12/08 11:23:20;;;;;;;2.17;1.60;;;16.30;54.40;;;;;;6186723;23;45312;-71
2022/12/08 11:25:48;;;;;;;2.67;1.40;;;16.30;54.40;;;;;;6185730;23;45463;-71
2022/12/08 11:28:24;;;;;;;1.77;1.42;;;16.30;54.50;;;;;;6186233;23;45376;-71
2022/12/08 11:30:57;;;;;;;3.05;1.60;;;16.30;54.50;;;;;;6186165;23;45337;-72
2022/12/08 11:33:26;;;;;;;2.50;1.40;;;16.30;54.50;;;;;;6186342;23;45296;-72
2022/12/08 11:35:59;;;;;;;1.15;1.00;;;16.30;54.60;;;;;;6185566;23;46348;-71
2022/12/08 11:38:28;;;;;;;2.58;1.48;;;16.30;54.60;;;;;;6185220;23;45377;-72
2022/12/08 11:41:00;;;;;;;1.90;1.20;;;16.30;54.60;;;;;;6186154;23;45298;-71
2022/12/08 11:43:36;;;;;;;2.47;1.63;;;16.30;54.60;;;;;;6185790;23;45486;-71
2022/12/08 11:46:08;;;;;;;2.78;1.70;;;16.30;54.60;;;;;;6183620;23;46982;-71
2022/12/08 11:48:40;;;;;;;3.22;1.63;;;16.30;54.50;;;;;;6184987;23;45606;-71
2022/12/08 11:51:14;;;;;;;3.13;1.30;;;16.30;54.60;;;;;;6186218;23;45380;-71
2022/12/08 11:53:51;;;;;;;2.10;1.27;;;16.30;54.60;;;;;;6184329;23;45305;-71
2022/12/08 11:56:21;;;;;;;4.22;1.63;;;16.40;54.50;;;;;;6185863;23;45345;-71
2022/12/08 11:58:53;;;;;;;3.63;1.40;;;16.40;54.40;;;;;;6185004;23;45253;-72
2022/12/08 12:01:22;;;;;;;3.63;1.83;;;16.30;54.30;;;;;;6186023;23;45225;-71
2022/12/08 12:03:55;;;;;;;2.65;1.67;;;16.30;54.30;;;;;;6188258;23;45361;-71
2022/12/08 12:06:47;;;;;;;2.28;1.33;;;16.30;54.40;;;;;;6185018;23;46326;-71
2022/12/08 12:09:19;;;;;;;4.82;1.85;;;16.30;54.40;;;;;;6186099;23;45329;-71
2022/12/08 12:12:13;;;;;;;2.67;1.50;;;16.30;54.40;;;;;;6185452;23;45356;-71
2022/12/08 12:14:58;;;;;;;3.03;1.63;;;16.30;54.40;;;;;;6186156;23;45421;-71
2022/12/08 12:17:41;;;;;;;3.47;1.98;;;16.30;54.40;;;;;;6184897;23;46283;-71
2022/12/08 12:20:18;;;;;;;3.10;1.55;;;16.30;54.30;;;;;;6185870;23;45274;-70
2022/12/08 12:22:49;;;;;;;3.70;1.75;;;16.30;54.20;;;;;;6184966;23;45378;-71
2022/12/08 12:25:22;;;;;;;2.65;1.60;;;16.30;54.20;;;;;;6183797;23;45217;-71
2022/12/08 12:27:51;;;;;;;3.08;1.50;;;16.30;54.20;;;;;;6182900;23;46662;-71
2022/12/08 12:30:23;;;;;;;3.55;1.85;;;16.30;54.20;;;;;;6183666;23;45289;-71
2022/12/08 12:32:55;;;;;;;2.42;1.70;;;16.30;54.30;;;;;;6183814;23;45265;-72
2022/12/08 12:35:31;;;;;;;3.33;1.75;;;16.30;54.20;;;;;;6183716;23;45435;-71
2022/12/08 12:38:02;;;;;;;2.92;1.40;;;16.40;54.40;;;;;;6183378;23;45490;-71
2022/12/08 12:40:38;;;;;;;2.50;1.58;;;16.30;54.20;;;;;;6183556;23;45209;-72
2022/12/08 12:43:28;;;;;;;3.08;1.60;;;16.30;54.20;;;;;;6184452;23;45325;-71
2022/12/08 12:46:34;;;;;;;3.00;1.50;;;16.40;54.30;;;;;;6181231;23;45253;-71
2022/12/08 12:49:34;;;;;;;1.88;1.20;;;16.40;54.20;;;;;;6182916;23;46597;-72
2022/12/08 12:52:01;;;;;;;1.80;1.45;;;16.40;54.10;;;;;;6183334;23;45248;-71
2022/12/08 12:54:29;;;;;;;3.03;1.45;;;16.30;54.00;;;;;;6182105;23;45287;-71
2022/12/08 12:57:16;;;;;;;2.35;1.58;;;16.30;54.00;;;;;;6182797;23;45523;-71
2022/12/08 12:59:45;;;;;;;2.65;1.45;;;16.30;54.00;;;;;;6184027;23;46256;-71
2022/12/08 13:02:25;;;;;;;2.95;1.30;;;16.30;54.10;;;;;;6183348;23;45308;-71
2022/12/08 13:04:58;;;;;;;3.28;1.50;;;16.30;54.30;;;;;;6184224;23;45212;-71
2022/12/08 13:07:27;;;;;;;1.48;1.20;;;16.30;53.90;;;;;;6183215;23;45455;-71
2022/12/08 13:10:00;;;;;;;3.28;1.70;;;16.30;54.00;;;;;;6183504;23;48523;-71